sensor_id;sensor_type;location;lat;lon;timestamp;temperature;humidity
50560;DHT22;36510;52.610;13.468;2022-07-03T00:00:53;20.40;23.90
50560;DHT22;36510;52.610;13.468;2022-07-03T00:05:44;20.30;24.20
50560;DHT22;36510;52.610;13.468;2022-07-03T00:10:35;20.40;24.50
50560;DHT22;36510;52.610;13.468;2022-07-03T00:15:25;20.30;24.30
50560;DHT22;36510;52.610;13.468;2022-07-03T00:20:16;20.40;24.40
50560;DHT22;36510;52.610;13.468;2022-07-03T00:25:07;20.40;24.40
50560;DHT22;36510;52.610;13.468;2022-07-03T00:29:59;20.50;24.40
50560;DHT22;36510;52.610;13.468;2022-07-03T00:34:51;20.60;25.00
50560;DHT22;36510;52.610;13.468;2022-07-03T00:39:43;20.60;24.10
50560;DHT22;36510;52.610;13.468;2022-07-03T00:44:42;20.50;24.20
50560;DHT22;36510;52.610;13.468;2022-07-03T00:49:35;20.30;24.60
50560;DHT22;36510;52.610;13.468;2022-07-03T00:54:26;20.10;24.80
50560;DHT22;36510;52.610;13.468;2022-07-03T00:59:17;20.10;25.10
50560;DHT22;36510;52.610;13.468;2022-07-03T01:04:22;20.00;25.30
50560;DHT22;36510;52.610;13.468;2022-07-03T01:09:34;19.90;25.70
50560;DHT22;36510;52.610;13.468;2022-07-03T01:15:05;19.90;25.70
50560;DHT22;36510;52.610;13.468;2022-07-03T01:20:04;19.90;25.70
50560;DHT22;36510;52.610;13.468;2022-07-03T01:25:25;19.90;25.90
50560;DHT22;36510;52.610;13.468;2022-07-03T01:30:16;19.90;25.90
50560;DHT22;36510;52.610;13.468;2022-07-03T01:35:12;19.80;25.90
50560;DHT22;36510;52.610;13.468;2022-07-03T01:40:04;19.90;26.00
50560;DHT22;36510;52.610;13.468;2022-07-03T01:44:58;19.90;26.20
50560;DHT22;36510;52.610;13.468;2022-07-03T01:49:50;19.90;26.00
50560;DHT22;36510;52.610;13.468;2022-07-03T01:54:42;19.90;26.00
50560;DHT22;36510;52.610;13.468;2022-07-03T01:59:34;19.80;26.10
50560;DHT22;36510;52.610;13.468;2022-07-03T02:04:32;19.80;26.30
50560;DHT22;36510;52.610;13.468;2022-07-03T02:09:35;19.80;26.70
50560;DHT22;36510;52.610;13.468;2022-07-03T02:14:32;19.70;27.00
50560;DHT22;36510;52.610;13.468;2022-07-03T02:19:48;19.70;26.80
50560;DHT22;36510;52.610;13.468;2022-07-03T02:24:43;19.60;27.20
50560;DHT22;36510;52.610;13.468;2022-07-03T02:29:47;19.50;27.10
50560;DHT22;36510;52.610;13.468;2022-07-03T02:34:38;19.40;27.80
50560;DHT22;36510;52.610;13.468;2022-07-03T02:40:22;19.40;27.70
50560;DHT22;36510;52.610;13.468;2022-07-03T02:44:51;19.40;27.70
50560;DHT22;36510;52.610;13.468;2022-07-03T02:50:07;19.20;27.90
50560;DHT22;36510;52.610;13.468;2022-07-03T02:55:34;19.20;28.30
50560;DHT22;36510;52.610;13.468;2022-07-03T03:00:33;19.10;28.40
50560;DHT22;36510;52.610;13.468;2022-07-03T03:05:28;19.10;28.40
50560;DHT22;36510;52.610;13.468;2022-07-03T03:10:19;19.20;28.50
50560;DHT22;36510;52.610;13.468;2022-07-03T03:15:12;19.20;28.10
50560;DHT22;36510;52.610;13.468;2022-07-03T03:20:03;19.20;28.20
50560;DHT22;36510;52.610;13.468;2022-07-03T03:24:54;19.20;28.50
50560;DHT22;36510;52.610;13.468;2022-07-03T03:29:45;19.10;28.50
50560;DHT22;36510;52.610;13.468;2022-07-03T03:34:36;19.00;28.80
50560;DHT22;36510;52.610;13.468;2022-07-03T03:39:27;18.90;29.20
50560;DHT22;36510;52.610;13.468;2022-07-03T03:44:18;18.70;29.70
50560;DHT22;36510;52.610;13.468;2022-07-03T03:49:08;18.60;29.90
50560;DHT22;36510;52.610;13.468;2022-07-03T03:53:58;18.50;30.50
50560;DHT22;36510;52.610;13.468;2022-07-03T03:58:49;18.50;30.60
50560;DHT22;36510;52.610;13.468;2022-07-03T04:03:40;18.40;31.00
50560;DHT22;36510;52.610;13.468;2022-07-03T04:08:31;18.50;31.40
50560;DHT22;36510;52.610;13.468;2022-07-03T04:13:22;18.60;31.20
50560;DHT22;36510;52.610;13.468;2022-07-03T04:18:12;18.60;31.40
50560;DHT22;36510;52.610;13.468;2022-07-03T04:23:03;18.80;31.40
50560;DHT22;36510;52.610;13.468;2022-07-03T04:27:54;18.90;31.10
50560;DHT22;36510;52.610;13.468;2022-07-03T04:32:44;19.10;31.30
50560;DHT22;36510;52.610;13.468;2022-07-03T04:37:35;19.20;30.50
50560;DHT22;36510;52.610;13.468;2022-07-03T04:42:26;19.30;31.00
50560;DHT22;36510;52.610;13.468;2022-07-03T04:47:16;19.50;31.80
50560;DHT22;36510;52.610;13.468;2022-07-03T04:52:07;19.70;30.50
50560;DHT22;36510;52.610;13.468;2022-07-03T04:56:58;19.80;30.00
50560;DHT22;36510;52.610;13.468;2022-07-03T05:01:48;19.90;30.00
50560;DHT22;36510;52.610;13.468;2022-07-03T05:06:39;20.10;30.00
50560;DHT22;36510;52.610;13.468;2022-07-03T05:11:30;20.20;30.20
50560;DHT22;36510;52.610;13.468;2022-07-03T05:16:20;20.30;29.40
50560;DHT22;36510;52.610;13.468;2022-07-03T05:21:11;20.40;29.00
50560;DHT22;36510;52.610;13.468;2022-07-03T05:26:01;20.60;28.80
50560;DHT22;36510;52.610;13.468;2022-07-03T05:30:52;20.70;28.10
50560;DHT22;36510;52.610;13.468;2022-07-03T05:35:42;20.80;27.70
50560;DHT22;36510;52.610;13.468;2022-07-03T05:40:33;20.90;28.00
50560;DHT22;36510;52.610;13.468;2022-07-03T05:45:23;21.00;27.20
50560;DHT22;36510;52.610;13.468;2022-07-03T05:50:14;21.10;26.80
50560;DHT22;36510;52.610;13.468;2022-07-03T05:55:05;21.30;27.00
50560;DHT22;36510;52.610;13.468;2022-07-03T05:59:55;21.30;26.50
50560;DHT22;36510;52.610;13.468;2022-07-03T06:04:46;21.40;26.00
50560;DHT22;36510;52.610;13.468;2022-07-03T06:09:36;21.50;25.80
50560;DHT22;36510;52.610;13.468;2022-07-03T06:14:27;21.70;25.60
50560;DHT22;36510;52.610;13.468;2022-07-03T06:19:17;21.80;25.50
50560;DHT22;36510;52.610;13.468;2022-07-03T06:24:08;22.00;26.30
50560;DHT22;36510;52.610;13.468;2022-07-03T06:28:58;22.20;24.00
50560;DHT22;36510;52.610;13.468;2022-07-03T06:33:49;22.60;23.60
50560;DHT22;36510;52.610;13.468;2022-07-03T06:38:39;23.20;22.00
50560;DHT22;36510;52.610;13.468;2022-07-03T06:43:30;24.10;20.00
50560;DHT22;36510;52.610;13.468;2022-07-03T06:48:20;24.40;20.00
50560;DHT22;36510;52.610;13.468;2022-07-03T06:53:10;25.00;18.00
50560;DHT22;36510;52.610;13.468;2022-07-03T06:58:01;25.40;17.10
50560;DHT22;36510;52.610;13.468;2022-07-03T07:02:51;25.90;16.00
50560;DHT22;36510;52.610;13.468;2022-07-03T07:07:42;26.10;15.50
50560;DHT22;36510;52.610;13.468;2022-07-03T07:12:32;26.70;14.60
50560;DHT22;36510;52.610;13.468;2022-07-03T07:17:23;26.80;13.70
50560;DHT22;36510;52.610;13.468;2022-07-03T07:22:13;26.60;13.70
50560;DHT22;36510;52.610;13.468;2022-07-03T07:27:04;26.10;15.30
50560;DHT22;36510;52.610;13.468;2022-07-03T07:31:55;25.50;16.40
50560;DHT22;36510;52.610;13.468;2022-07-03T07:36:45;25.10;17.70
50560;DHT22;36510;52.610;13.468;2022-07-03T07:41:37;24.70;18.50
50560;DHT22;36510;52.610;13.468;2022-07-03T07:46:28;24.50;18.30
50560;DHT22;36510;52.610;13.468;2022-07-03T07:51:19;24.40;18.40
50560;DHT22;36510;52.610;13.468;2022-07-03T07:56:09;24.30;18.20
50560;DHT22;36510;52.610;13.468;2022-07-03T08:01:00;24.40;18.50
50560;DHT22;36510;52.610;13.468;2022-07-03T08:06:09;24.50;17.40
50560;DHT22;36510;52.610;13.468;2022-07-03T08:11:00;24.60;17.30
50560;DHT22;36510;52.610;13.468;2022-07-03T08:15:50;24.80;17.30
50560;DHT22;36510;52.610;13.468;2022-07-03T08:20:42;24.90;16.50
50560;DHT22;36510;52.610;13.468;2022-07-03T08:25:32;25.00;16.50
50560;DHT22;36510;52.610;13.468;2022-07-03T08:30:23;25.10;15.60
50560;DHT22;36510;52.610;13.468;2022-07-03T08:35:14;25.10;16.10
50560;DHT22;36510;52.610;13.468;2022-07-03T08:40:06;25.10;16.00
50560;DHT22;36510;52.610;13.468;2022-07-03T08:44:57;25.30;16.40
50560;DHT22;36510;52.610;13.468;2022-07-03T08:49:49;25.40;15.30
50560;DHT22;36510;52.610;13.468;2022-07-03T08:54:40;25.50;15.20
50560;DHT22;36510;52.610;13.468;2022-07-03T08:59:38;25.60;14.80
50560;DHT22;36510;52.610;13.468;2022-07-03T09:04:29;25.70;14.10
50560;DHT22;36510;52.610;13.468;2022-07-03T09:09:19;25.70;15.60
50560;DHT22;36510;52.610;13.468;2022-07-03T09:14:10;25.90;17.20
50560;DHT22;36510;52.610;13.468;2022-07-03T09:19:01;25.90;13.60
50560;DHT22;36510;52.610;13.468;2022-07-03T09:23:53;26.10;14.40
50560;DHT22;36510;52.610;13.468;2022-07-03T09:28:53;26.40;13.50
50560;DHT22;36510;52.610;13.468;2022-07-03T09:34:00;26.50;13.50
50560;DHT22;36510;52.610;13.468;2022-07-03T09:38:51;26.60;15.10
50560;DHT22;36510;52.610;13.468;2022-07-03T09:43:43;26.70;13.10
50560;DHT22;36510;52.610;13.468;2022-07-03T09:48:36;26.70;13.90
50560;DHT22;36510;52.610;13.468;2022-07-03T09:53:27;26.70;13.00
50560;DHT22;36510;52.610;13.468;2022-07-03T09:58:17;27.00;11.30
50560;DHT22;36510;52.610;13.468;2022-07-03T10:03:09;27.50;11.50
50560;DHT22;36510;52.610;13.468;2022-07-03T10:08:10;27.70;11.00
50560;DHT22;36510;52.610;13.468;2022-07-03T10:13:02;27.70;10.30
50560;DHT22;36510;52.610;13.468;2022-07-03T10:17:55;27.30;10.80
50560;DHT22;36510;52.610;13.468;2022-07-03T10:22:48;27.70;10.30
50560;DHT22;36510;52.610;13.468;2022-07-03T10:27:39;27.90;10.40
50560;DHT22;36510;52.610;13.468;2022-07-03T10:32:32;27.80;9.40
50560;DHT22;36510;52.610;13.468;2022-07-03T10:37:27;28.00;8.90
50560;DHT22;36510;52.610;13.468;2022-07-03T10:42:27;28.30;9.00
50560;DHT22;36510;52.610;13.468;2022-07-03T10:47:46;28.60;9.40
50560;DHT22;36510;52.610;13.468;2022-07-03T10:52:38;28.50;7.50
50560;DHT22;36510;52.610;13.468;2022-07-03T10:57:29;28.60;8.40
50560;DHT22;36510;52.610;13.468;2022-07-03T11:02:45;28.70;8.30
50560;DHT22;36510;52.610;13.468;2022-07-03T11:07:43;29.00;7.80
50560;DHT22;36510;52.610;13.468;2022-07-03T11:23:06;29.20;7.60
50560;DHT22;36510;52.610;13.468;2022-07-03T11:27:57;29.50;6.00
50560;DHT22;36510;52.610;13.468;2022-07-03T11:32:53;29.50;5.70
50560;DHT22;36510;52.610;13.468;2022-07-03T11:37:47;29.70;7.00
50560;DHT22;36510;52.610;13.468;2022-07-03T11:42:38;29.80;5.70
50560;DHT22;36510;52.610;13.468;2022-07-03T11:47:28;29.80;5.90
50560;DHT22;36510;52.610;13.468;2022-07-03T11:52:32;30.00;6.70
50560;DHT22;36510;52.610;13.468;2022-07-03T11:57:23;30.20;5.40
50560;DHT22;36510;52.610;13.468;2022-07-03T12:02:14;30.20;4.90
50560;DHT22;36510;52.610;13.468;2022-07-03T12:07:04;30.20;6.60
50560;DHT22;36510;52.610;13.468;2022-07-03T12:12:05;30.20;5.60
50560;DHT22;36510;52.610;13.468;2022-07-03T12:16:56;29.90;4.30
50560;DHT22;36510;52.610;13.468;2022-07-03T12:21:47;29.60;5.40
50560;DHT22;36510;52.610;13.468;2022-07-03T12:26:38;30.10;5.30
50560;DHT22;36510;52.610;13.468;2022-07-03T12:31:29;30.50;5.30
50560;DHT22;36510;52.610;13.468;2022-07-03T12:36:20;30.80;4.30
50560;DHT22;36510;52.610;13.468;2022-07-03T12:41:10;31.20;3.80
50560;DHT22;36510;52.610;13.468;2022-07-03T12:46:01;31.40;4.50
50560;DHT22;36510;52.610;13.468;2022-07-03T12:50:51;31.20;2.90
50560;DHT22;36510;52.610;13.468;2022-07-03T12:55:44;31.40;2.30
50560;DHT22;36510;52.610;13.468;2022-07-03T13:00:44;31.10;2.20
50560;DHT22;36510;52.610;13.468;2022-07-03T13:05:41;31.20;3.30
50560;DHT22;36510;52.610;13.468;2022-07-03T13:10:32;31.40;3.50
50560;DHT22;36510;52.610;13.468;2022-07-03T13:15:27;31.30;2.60
50560;DHT22;36510;52.610;13.468;2022-07-03T13:20:18;31.00;3.10
50560;DHT22;36510;52.610;13.468;2022-07-03T13:25:08;30.90;3.60
50560;DHT22;36510;52.610;13.468;2022-07-03T13:29:59;30.50;4.70
50560;DHT22;36510;52.610;13.468;2022-07-03T13:34:49;30.70;3.80
50560;DHT22;36510;52.610;13.468;2022-07-03T13:39:40;30.70;3.70
50560;DHT22;36510;52.610;13.468;2022-07-03T13:44:30;30.60;3.50
50560;DHT22;36510;52.610;13.468;2022-07-03T13:49:21;30.50;4.70
50560;DHT22;36510;52.610;13.468;2022-07-03T13:54:11;30.60;4.10
50560;DHT22;36510;52.610;13.468;2022-07-03T13:59:02;30.50;3.80
50560;DHT22;36510;52.610;13.468;2022-07-03T14:03:52;30.40;3.60
50560;DHT22;36510;52.610;13.468;2022-07-03T14:08:43;30.40;3.40
50560;DHT22;36510;52.610;13.468;2022-07-03T14:13:33;30.10;3.10
50560;DHT22;36510;52.610;13.468;2022-07-03T14:18:24;29.90;4.50
50560;DHT22;36510;52.610;13.468;2022-07-03T14:23:14;29.90;3.80
50560;DHT22;36510;52.610;13.468;2022-07-03T14:28:05;30.00;4.20
50560;DHT22;36510;52.610;13.468;2022-07-03T14:33:14;30.10;3.70
50560;DHT22;36510;52.610;13.468;2022-07-03T14:38:04;30.10;3.90
50560;DHT22;36510;52.610;13.468;2022-07-03T14:42:54;30.20;4.30
50560;DHT22;36510;52.610;13.468;2022-07-03T14:47:47;30.00;3.20
50560;DHT22;36510;52.610;13.468;2022-07-03T14:52:37;29.80;3.80
50560;DHT22;36510;52.610;13.468;2022-07-03T14:57:52;29.80;4.80
50560;DHT22;36510;52.610;13.468;2022-07-03T15:03:03;29.70;4.20
50560;DHT22;36510;52.610;13.468;2022-07-03T15:13:24;29.70;5.40
50560;DHT22;36510;52.610;13.468;2022-07-03T15:18:18;29.70;4.50
50560;DHT22;36510;52.610;13.468;2022-07-03T15:23:10;29.70;4.20
50560;DHT22;36510;52.610;13.468;2022-07-03T15:28:01;29.50;5.20
50560;DHT22;36510;52.610;13.468;2022-07-03T15:32:52;29.40;5.40
50560;DHT22;36510;52.610;13.468;2022-07-03T15:38:04;29.60;5.30
50560;DHT22;36510;52.610;13.468;2022-07-03T15:43:31;29.50;5.40
50560;DHT22;36510;52.610;13.468;2022-07-03T15:53:58;29.30;6.40
50560;DHT22;36510;52.610;13.468;2022-07-03T15:58:54;29.30;6.70
50560;DHT22;36510;52.610;13.468;2022-07-03T16:04:02;29.50;6.30
50560;DHT22;36510;52.610;13.468;2022-07-03T16:08:53;29.40;6.30
50560;DHT22;36510;52.610;13.468;2022-07-03T16:13:46;29.30;5.70
50560;DHT22;36510;52.610;13.468;2022-07-03T16:18:41;29.20;5.70
50560;DHT22;36510;52.610;13.468;2022-07-03T16:23:34;29.10;5.50
50560;DHT22;36510;52.610;13.468;2022-07-03T16:28:28;29.00;6.90
50560;DHT22;36510;52.610;13.468;2022-07-03T16:33:25;29.20;6.00
50560;DHT22;36510;52.610;13.468;2022-07-03T16:38:40;29.20;5.60
50560;DHT22;36510;52.610;13.468;2022-07-03T16:43:33;29.20;5.20
50560;DHT22;36510;52.610;13.468;2022-07-03T16:48:28;29.10;4.90
50560;DHT22;36510;52.610;13.468;2022-07-03T16:53:19;29.10;5.10
50560;DHT22;36510;52.610;13.468;2022-07-03T16:58:10;29.00;5.00
50560;DHT22;36510;52.610;13.468;2022-07-03T17:03:04;29.10;5.40
50560;DHT22;36510;52.610;13.468;2022-07-03T17:07:55;29.30;4.00
50560;DHT22;36510;52.610;13.468;2022-07-03T17:12:50;29.30;5.30
50560;DHT22;36510;52.610;13.468;2022-07-03T17:17:43;29.30;5.40
50560;DHT22;36510;52.610;13.468;2022-07-03T17:22:38;29.30;5.60
50560;DHT22;36510;52.610;13.468;2022-07-03T17:27:31;29.30;5.40
50560;DHT22;36510;52.610;13.468;2022-07-03T17:32:23;29.20;5.00
50560;DHT22;36510;52.610;13.468;2022-07-03T17:37:15;29.10;5.70
50560;DHT22;36510;52.610;13.468;2022-07-03T17:42:08;29.00;6.90
50560;DHT22;36510;52.610;13.468;2022-07-03T17:47:03;29.10;6.90
50560;DHT22;36510;52.610;13.468;2022-07-03T17:51:55;29.00;6.70
50560;DHT22;36510;52.610;13.468;2022-07-03T17:56:46;29.00;7.20
50560;DHT22;36510;52.610;13.468;2022-07-03T18:01:37;29.00;7.10
50560;DHT22;36510;52.610;13.468;2022-07-03T18:06:29;28.90;7.30
50560;DHT22;36510;52.610;13.468;2022-07-03T18:11:45;28.80;6.40
50560;DHT22;36510;52.610;13.468;2022-07-03T18:16:38;28.80;6.90
50560;DHT22;36510;52.610;13.468;2022-07-03T18:21:32;28.80;6.80
50560;DHT22;36510;52.610;13.468;2022-07-03T18:26:34;28.70;9.00
50560;DHT22;36510;52.610;13.468;2022-07-03T18:31:46;28.60;8.90
50560;DHT22;36510;52.610;13.468;2022-07-03T18:36:37;28.40;14.50
50560;DHT22;36510;52.610;13.468;2022-07-03T18:41:28;28.20;11.30
50560;DHT22;36510;52.610;13.468;2022-07-03T18:46:19;28.10;10.00
50560;DHT22;36510;52.610;13.468;2022-07-03T19:01:45;27.90;15.30
50560;DHT22;36510;52.610;13.468;2022-07-03T19:06:38;27.80;15.60
50560;DHT22;36510;52.610;13.468;2022-07-03T19:12:10;27.70;16.10
50560;DHT22;36510;52.610;13.468;2022-07-03T19:17:06;27.70;20.60
50560;DHT22;36510;52.610;13.468;2022-07-03T19:21:58;27.50;19.00
50560;DHT22;36510;52.610;13.468;2022-07-03T19:26:49;27.40;21.60
50560;DHT22;36510;52.610;13.468;2022-07-03T19:31:39;27.20;19.70
50560;DHT22;36510;52.610;13.468;2022-07-03T19:36:30;27.00;16.40
50560;DHT22;36510;52.610;13.468;2022-07-03T19:41:21;27.00;15.60
50560;DHT22;36510;52.610;13.468;2022-07-03T19:46:12;26.90;13.90
50560;DHT22;36510;52.610;13.468;2022-07-03T19:51:02;26.80;13.80
50560;DHT22;36510;52.610;13.468;2022-07-03T19:55:53;26.70;13.90
50560;DHT22;36510;52.610;13.468;2022-07-03T20:00:43;26.50;14.20
50560;DHT22;36510;52.610;13.468;2022-07-03T20:05:34;26.40;14.90
50560;DHT22;36510;52.610;13.468;2022-07-03T20:10:26;26.20;15.40
50560;DHT22;36510;52.610;13.468;2022-07-03T20:15:17;26.10;15.90
50560;DHT22;36510;52.610;13.468;2022-07-03T20:20:08;26.10;16.40
50560;DHT22;36510;52.610;13.468;2022-07-03T20:24:58;26.00;16.60
50560;DHT22;36510;52.610;13.468;2022-07-03T20:29:49;25.90;16.80
50560;DHT22;36510;52.610;13.468;2022-07-03T20:34:40;25.80;17.10
50560;DHT22;36510;52.610;13.468;2022-07-03T20:39:32;25.60;17.60
50560;DHT22;36510;52.610;13.468;2022-07-03T20:44:23;25.60;18.40
50560;DHT22;36510;52.610;13.468;2022-07-03T20:49:13;25.50;18.30
50560;DHT22;36510;52.610;13.468;2022-07-03T20:54:04;25.50;18.40
50560;DHT22;36510;52.610;13.468;2022-07-03T20:58:54;25.50;18.60
50560;DHT22;36510;52.610;13.468;2022-07-03T21:03:45;25.40;18.80
50560;DHT22;36510;52.610;13.468;2022-07-03T21:08:35;25.30;18.90
50560;DHT22;36510;52.610;13.468;2022-07-03T21:13:26;25.20;19.20
50560;DHT22;36510;52.610;13.468;2022-07-03T21:18:16;25.10;19.50
50560;DHT22;36510;52.610;13.468;2022-07-03T21:23:06;25.20;19.60
50560;DHT22;36510;52.610;13.468;2022-07-03T21:27:57;25.10;19.70
50560;DHT22;36510;52.610;13.468;2022-07-03T21:32:48;25.00;19.90
50560;DHT22;36510;52.610;13.468;2022-07-03T21:37:38;24.90;20.20
50560;DHT22;36510;52.610;13.468;2022-07-03T21:42:29;24.90;20.40
50560;DHT22;36510;52.610;13.468;2022-07-03T21:47:19;24.90;20.60
50560;DHT22;36510;52.610;13.468;2022-07-03T21:52:10;24.90;20.20
50560;DHT22;36510;52.610;13.468;2022-07-03T21:57:00;25.00;21.10
50560;DHT22;36510;52.610;13.468;2022-07-03T22:01:50;24.90;20.40
50560;DHT22;36510;52.610;13.468;2022-07-03T22:06:41;24.90;20.40
50560;DHT22;36510;52.610;13.468;2022-07-03T22:11:31;24.90;21.50
50560;DHT22;36510;52.610;13.468;2022-07-03T22:16:42;24.70;21.20
50560;DHT22;36510;52.610;13.468;2022-07-03T22:21:32;24.70;21.40
50560;DHT22;36510;52.610;13.468;2022-07-03T22:26:23;24.70;22.20
50560;DHT22;36510;52.610;13.468;2022-07-03T22:31:13;24.60;21.50
50560;DHT22;36510;52.610;13.468;2022-07-03T22:36:22;24.60;20.90
50560;DHT22;36510;52.610;13.468;2022-07-03T22:41:12;24.60;21.30
50560;DHT22;36510;52.610;13.468;2022-07-03T22:46:03;24.60;21.90
50560;DHT22;36510;52.610;13.468;2022-07-03T22:50:53;24.60;22.00
50560;DHT22;36510;52.610;13.468;2022-07-03T22:55:44;24.70;22.10
50560;DHT22;36510;52.610;13.468;2022-07-03T23:00:35;24.70;24.00
50560;DHT22;36510;52.610;13.468;2022-07-03T23:05:26;24.70;22.90
50560;DHT22;36510;52.610;13.468;2022-07-03T23:10:17;24.60;23.30
50560;DHT22;36510;52.610;13.468;2022-07-03T23:15:08;24.40;23.20
50560;DHT22;36510;52.610;13.468;2022-07-03T23:19:58;24.30;23.30
50560;DHT22;36510;52.610;13.468;2022-07-03T23:24:49;24.20;24.60
50560;DHT22;36510;52.610;13.468;2022-07-03T23:29:39;24.00;26.20
50560;DHT22;36510;52.610;13.468;2022-07-03T23:34:30;23.80;27.00
50560;DHT22;36510;52.610;13.468;2022-07-03T23:39:20;23.80;27.50
50560;DHT22;36510;52.610;13.468;2022-07-03T23:44:11;23.90;27.60
50560;DHT22;36510;52.610;13.468;2022-07-03T23:49:04;23.70;27.90
50560;DHT22;36510;52.610;13.468;2022-07-03T23:54:13;23.80;27.90
50560;DHT22;36510;52.610;13.468;2022-07-03T23:59:04;23.70;28.20
